sensor_id;sensor_type;location;lat;lon;timestamp;P1;durP1;ratioP1;P2;durP2;ratioP2
10586;SDS011;5341;47.606;7.576;2023-12-28T00:00:18;11.00;;;8.48;;
10586;SDS011;5341;47.606;7.576;2023-12-28T00:02:46;10.52;;;8.35;;
10586;SDS011;5341;47.606;7.576;2023-12-28T00:05:13;10.68;;;7.85;;
10586;SDS011;5341;47.606;7.576;2023-12-28T00:07:41;8.52;;;7.60;;
10586;SDS011;5341;47.606;7.576;2023-12-28T00:10:09;9.25;;;7.70;;
10586;SDS011;5341;47.606;7.576;2023-12-28T00:12:41;10.35;;;8.02;;
10586;SDS011;5341;47.606;7.576;2023-12-28T00:15:09;9.73;;;7.25;;
10586;SDS011;5341;47.606;7.576;2023-12-28T00:17:37;8.05;;;6.97;;
10586;SDS011;5341;47.606;7.576;2023-12-28T00:20:05;9.38;;;7.10;;
10586;SDS011;5341;47.606;7.576;2023-12-28T00:22:33;8.65;;;6.78;;
10586;SDS011;5341;47.606;7.576;2023-12-28T00:25:03;9.13;;;7.53;;
10586;SDS011;5341;47.606;7.576;2023-12-28T00:27:32;8.52;;;7.43;;
10586;SDS011;5341;47.606;7.576;2023-12-28T00:30:06;7.95;;;6.63;;
10586;SDS011;5341;47.606;7.576;2023-12-28T00:32:35;8.13;;;6.63;;
10586;SDS011;5341;47.606;7.576;2023-12-28T00:35:05;8.27;;;7.20;;
10586;SDS011;5341;47.606;7.576;2023-12-28T00:37:33;9.80;;;7.07;;
10586;SDS011;5341;47.606;7.576;2023-12-28T00:40:00;8.38;;;6.82;;
10586;SDS011;5341;47.606;7.576;2023-12-28T00:42:29;8.75;;;6.90;;
10586;SDS011;5341;47.606;7.576;2023-12-28T00:45:00;9.35;;;6.63;;
10586;SDS011;5341;47.606;7.576;2023-12-28T00:47:29;7.68;;;6.65;;
10586;SDS011;5341;47.606;7.576;2023-12-28T00:49:58;7.85;;;6.82;;
10586;SDS011;5341;47.606;7.576;2023-12-28T00:52:25;8.88;;;7.07;;
10586;SDS011;5341;47.606;7.576;2023-12-28T00:54:53;7.45;;;6.50;;
10586;SDS011;5341;47.606;7.576;2023-12-28T00:57:20;8.88;;;7.20;;
10586;SDS011;5341;47.606;7.576;2023-12-28T00:59:47;8.07;;;6.65;;
10586;SDS011;5341;47.606;7.576;2023-12-28T01:02:16;8.13;;;6.85;;
10586;SDS011;5341;47.606;7.576;2023-12-28T01:04:50;8.43;;;7.45;;
10586;SDS011;5341;47.606;7.576;2023-12-28T01:07:18;8.02;;;6.65;;
10586;SDS011;5341;47.606;7.576;2023-12-28T01:09:45;7.40;;;6.60;;
10586;SDS011;5341;47.606;7.576;2023-12-28T01:12:13;8.07;;;7.10;;
10586;SDS011;5341;47.606;7.576;2023-12-28T01:14:40;11.38;;;7.47;;
10586;SDS011;5341;47.606;7.576;2023-12-28T01:17:08;7.78;;;6.90;;
10586;SDS011;5341;47.606;7.576;2023-12-28T01:19:36;8.82;;;7.20;;
10586;SDS011;5341;47.606;7.576;2023-12-28T01:22:05;9.77;;;7.32;;
10586;SDS011;5341;47.606;7.576;2023-12-28T01:24:32;8.82;;;7.00;;
10586;SDS011;5341;47.606;7.576;2023-12-28T01:27:00;8.55;;;6.75;;
10586;SDS011;5341;47.606;7.576;2023-12-28T01:29:27;7.78;;;6.68;;
10586;SDS011;5341;47.606;7.576;2023-12-28T01:31:55;9.15;;;6.72;;
10586;SDS011;5341;47.606;7.576;2023-12-28T01:34:22;9.00;;;7.03;;
10586;SDS011;5341;47.606;7.576;2023-12-28T01:36:50;8.48;;;6.78;;
10586;SDS011;5341;47.606;7.576;2023-12-28T01:39:19;9.82;;;6.35;;
10586;SDS011;5341;47.606;7.576;2023-12-28T01:41:46;8.35;;;5.97;;
10586;SDS011;5341;47.606;7.576;2023-12-28T01:44:14;8.18;;;6.53;;
10586;SDS011;5341;47.606;7.576;2023-12-28T01:46:42;10.10;;;6.57;;
10586;SDS011;5341;47.606;7.576;2023-12-28T01:49:09;11.02;;;7.45;;
10586;SDS011;5341;47.606;7.576;2023-12-28T01:51:37;7.78;;;6.90;;
10586;SDS011;5341;47.606;7.576;2023-12-28T01:54:06;8.57;;;6.15;;
10586;SDS011;5341;47.606;7.576;2023-12-28T01:56:35;7.72;;;6.30;;
10586;SDS011;5341;47.606;7.576;2023-12-28T01:59:04;8.20;;;5.63;;
10586;SDS011;5341;47.606;7.576;2023-12-28T02:01:33;7.88;;;5.75;;
10586;SDS011;5341;47.606;7.576;2023-12-28T02:04:00;6.65;;;6.03;;
10586;SDS011;5341;47.606;7.576;2023-12-28T02:06:29;6.60;;;5.65;;
10586;SDS011;5341;47.606;7.576;2023-12-28T02:08:56;6.70;;;5.72;;
10586;SDS011;5341;47.606;7.576;2023-12-28T02:11:25;5.80;;;4.95;;
10586;SDS011;5341;47.606;7.576;2023-12-28T02:13:54;6.88;;;5.50;;
10586;SDS011;5341;47.606;7.576;2023-12-28T02:16:23;7.53;;;5.80;;
10586;SDS011;5341;47.606;7.576;2023-12-28T02:18:56;7.85;;;5.40;;
10586;SDS011;5341;47.606;7.576;2023-12-28T02:21:26;6.65;;;5.45;;
10586;SDS011;5341;47.606;7.576;2023-12-28T02:23:54;6.90;;;5.57;;
10586;SDS011;5341;47.606;7.576;2023-12-28T02:26:24;6.07;;;5.13;;
10586;SDS011;5341;47.606;7.576;2023-12-28T02:28:52;8.90;;;5.07;;
10586;SDS011;5341;47.606;7.576;2023-12-28T02:31:21;6.18;;;5.03;;
10586;SDS011;5341;47.606;7.576;2023-12-28T02:33:54;5.75;;;5.15;;
10586;SDS011;5341;47.606;7.576;2023-12-28T02:36:25;6.13;;;5.35;;
10586;SDS011;5341;47.606;7.576;2023-12-28T02:38:54;6.32;;;5.15;;
10586;SDS011;5341;47.606;7.576;2023-12-28T02:41:26;5.80;;;5.10;;
10586;SDS011;5341;47.606;7.576;2023-12-28T02:43:54;6.53;;;5.35;;
10586;SDS011;5341;47.606;7.576;2023-12-28T02:46:22;6.82;;;5.60;;
10586;SDS011;5341;47.606;7.576;2023-12-28T02:48:49;7.78;;;5.40;;
10586;SDS011;5341;47.606;7.576;2023-12-28T02:51:18;8.60;;;5.50;;
10586;SDS011;5341;47.606;7.576;2023-12-28T02:53:45;5.97;;;5.38;;
10586;SDS011;5341;47.606;7.576;2023-12-28T02:56:12;6.75;;;5.50;;
10586;SDS011;5341;47.606;7.576;2023-12-28T02:58:42;7.47;;;5.35;;
10586;SDS011;5341;47.606;7.576;2023-12-28T03:01:09;6.40;;;5.40;;
10586;SDS011;5341;47.606;7.576;2023-12-28T03:03:37;8.18;;;6.03;;
10586;SDS011;5341;47.606;7.576;2023-12-28T03:06:04;6.80;;;5.82;;
10586;SDS011;5341;47.606;7.576;2023-12-28T03:08:31;9.30;;;6.15;;
10586;SDS011;5341;47.606;7.576;2023-12-28T03:10:59;6.40;;;5.47;;
10586;SDS011;5341;47.606;7.576;2023-12-28T03:13:26;7.35;;;5.63;;
10586;SDS011;5341;47.606;7.576;2023-12-28T03:15:55;7.75;;;5.63;;
10586;SDS011;5341;47.606;7.576;2023-12-28T03:18:22;6.57;;;5.22;;
10586;SDS011;5341;47.606;7.576;2023-12-28T03:20:51;7.45;;;5.95;;
10586;SDS011;5341;47.606;7.576;2023-12-28T03:23:19;6.05;;;5.13;;
10586;SDS011;5341;47.606;7.576;2023-12-28T03:25:46;7.03;;;5.03;;
10586;SDS011;5341;47.606;7.576;2023-12-28T03:28:14;6.18;;;5.28;;
10586;SDS011;5341;47.606;7.576;2023-12-28T03:30:42;8.20;;;5.28;;
10586;SDS011;5341;47.606;7.576;2023-12-28T03:33:10;5.78;;;5.05;;
10586;SDS011;5341;47.606;7.576;2023-12-28T03:35:38;6.80;;;5.43;;
10586;SDS011;5341;47.606;7.576;2023-12-28T03:38:06;6.95;;;5.18;;
10586;SDS011;5341;47.606;7.576;2023-12-28T03:40:33;6.20;;;5.20;;
10586;SDS011;5341;47.606;7.576;2023-12-28T03:43:01;6.93;;;5.20;;
10586;SDS011;5341;47.606;7.576;2023-12-28T03:45:29;7.65;;;5.55;;
10586;SDS011;5341;47.606;7.576;2023-12-28T03:47:56;7.15;;;5.40;;
10586;SDS011;5341;47.606;7.576;2023-12-28T03:50:25;6.43;;;5.07;;
10586;SDS011;5341;47.606;7.576;2023-12-28T03:52:53;5.90;;;5.30;;
10586;SDS011;5341;47.606;7.576;2023-12-28T03:55:20;7.22;;;5.38;;
10586;SDS011;5341;47.606;7.576;2023-12-28T03:57:47;5.78;;;5.10;;
10586;SDS011;5341;47.606;7.576;2023-12-28T04:00:16;6.18;;;5.30;;
10586;SDS011;5341;47.606;7.576;2023-12-28T04:02:44;5.85;;;5.00;;
10586;SDS011;5341;47.606;7.576;2023-12-28T04:05:11;5.45;;;4.70;;
10586;SDS011;5341;47.606;7.576;2023-12-28T04:07:40;6.90;;;5.50;;
10586;SDS011;5341;47.606;7.576;2023-12-28T04:10:08;6.35;;;5.10;;
10586;SDS011;5341;47.606;7.576;2023-12-28T04:12:37;8.27;;;5.72;;
10586;SDS011;5341;47.606;7.576;2023-12-28T04:15:05;8.05;;;5.90;;
10586;SDS011;5341;47.606;7.576;2023-12-28T04:17:33;6.68;;;5.57;;
10586;SDS011;5341;47.606;7.576;2023-12-28T04:20:00;6.97;;;5.60;;
10586;SDS011;5341;47.606;7.576;2023-12-28T04:22:28;7.32;;;5.70;;
10586;SDS011;5341;47.606;7.576;2023-12-28T04:24:57;6.40;;;5.10;;
10586;SDS011;5341;47.606;7.576;2023-12-28T04:27:24;5.75;;;4.95;;
10586;SDS011;5341;47.606;7.576;2023-12-28T04:29:51;7.20;;;5.50;;
10586;SDS011;5341;47.606;7.576;2023-12-28T04:32:19;6.60;;;5.38;;
10586;SDS011;5341;47.606;7.576;2023-12-28T04:34:47;5.68;;;5.13;;
10586;SDS011;5341;47.606;7.576;2023-12-28T04:37:14;6.18;;;5.03;;
10586;SDS011;5341;47.606;7.576;2023-12-28T04:39:41;8.23;;;5.22;;
10586;SDS011;5341;47.606;7.576;2023-12-28T04:42:10;5.90;;;5.25;;
10586;SDS011;5341;47.606;7.576;2023-12-28T04:44:38;6.90;;;5.47;;
10586;SDS011;5341;47.606;7.576;2023-12-28T04:47:06;6.10;;;5.47;;
10586;SDS011;5341;47.606;7.576;2023-12-28T04:49:34;5.72;;;5.13;;
10586;SDS011;5341;47.606;7.576;2023-12-28T04:52:02;7.80;;;5.05;;
10586;SDS011;5341;47.606;7.576;2023-12-28T04:54:30;7.28;;;5.50;;
10586;SDS011;5341;47.606;7.576;2023-12-28T04:56:59;6.25;;;5.30;;
10586;SDS011;5341;47.606;7.576;2023-12-28T04:59:28;6.05;;;5.45;;
10586;SDS011;5341;47.606;7.576;2023-12-28T05:01:56;6.85;;;5.80;;
10586;SDS011;5341;47.606;7.576;2023-12-28T05:04:23;6.05;;;5.40;;
10586;SDS011;5341;47.606;7.576;2023-12-28T05:06:50;6.95;;;5.28;;
10586;SDS011;5341;47.606;7.576;2023-12-28T05:09:18;7.85;;;5.38;;
10586;SDS011;5341;47.606;7.576;2023-12-28T05:11:45;7.65;;;5.80;;
10586;SDS011;5341;47.606;7.576;2023-12-28T05:14:12;6.00;;;4.90;;
10586;SDS011;5341;47.606;7.576;2023-12-28T05:16:41;5.38;;;4.78;;
10586;SDS011;5341;47.606;7.576;2023-12-28T05:19:09;5.93;;;5.15;;
10586;SDS011;5341;47.606;7.576;2023-12-28T05:21:36;5.88;;;5.13;;
10586;SDS011;5341;47.606;7.576;2023-12-28T05:24:04;6.82;;;5.40;;
10586;SDS011;5341;47.606;7.576;2023-12-28T05:26:31;6.78;;;4.80;;
10586;SDS011;5341;47.606;7.576;2023-12-28T05:28:59;5.60;;;5.03;;
10586;SDS011;5341;47.606;7.576;2023-12-28T05:31:26;7.60;;;5.78;;
10586;SDS011;5341;47.606;7.576;2023-12-28T05:33:55;6.18;;;5.20;;
10586;SDS011;5341;47.606;7.576;2023-12-28T05:36:23;5.90;;;5.32;;
10586;SDS011;5341;47.606;7.576;2023-12-28T05:38:51;5.88;;;5.07;;
10586;SDS011;5341;47.606;7.576;2023-12-28T05:41:18;6.05;;;4.97;;
10586;SDS011;5341;47.606;7.576;2023-12-28T05:43:46;7.38;;;5.43;;
10586;SDS011;5341;47.606;7.576;2023-12-28T05:46:13;9.15;;;5.30;;
10586;SDS011;5341;47.606;7.576;2023-12-28T05:48:41;5.47;;;4.88;;
10586;SDS011;5341;47.606;7.576;2023-12-28T05:51:10;6.80;;;5.30;;
10586;SDS011;5341;47.606;7.576;2023-12-28T05:53:37;6.82;;;5.40;;
10586;SDS011;5341;47.606;7.576;2023-12-28T05:56:04;6.82;;;5.25;;
10586;SDS011;5341;47.606;7.576;2023-12-28T05:58:32;5.45;;;4.95;;
10586;SDS011;5341;47.606;7.576;2023-12-28T06:01:00;6.47;;;5.15;;
10586;SDS011;5341;47.606;7.576;2023-12-28T06:03:29;6.50;;;5.28;;
10586;SDS011;5341;47.606;7.576;2023-12-28T06:05:57;5.90;;;4.97;;
10586;SDS011;5341;47.606;7.576;2023-12-28T06:08:25;7.22;;;5.40;;
10586;SDS011;5341;47.606;7.576;2023-12-28T06:10:53;6.68;;;5.43;;
10586;SDS011;5341;47.606;7.576;2023-12-28T06:13:20;6.53;;;5.45;;
10586;SDS011;5341;47.606;7.576;2023-12-28T06:15:48;7.40;;;5.38;;
10586;SDS011;5341;47.606;7.576;2023-12-28T06:18:15;6.45;;;5.78;;
10586;SDS011;5341;47.606;7.576;2023-12-28T06:20:43;7.57;;;5.93;;
10586;SDS011;5341;47.606;7.576;2023-12-28T06:23:11;6.90;;;5.55;;
10586;SDS011;5341;47.606;7.576;2023-12-28T06:25:40;6.22;;;5.25;;
10586;SDS011;5341;47.606;7.576;2023-12-28T06:28:07;8.38;;;5.38;;
10586;SDS011;5341;47.606;7.576;2023-12-28T06:30:35;6.00;;;5.10;;
10586;SDS011;5341;47.606;7.576;2023-12-28T06:33:03;6.60;;;5.72;;
10586;SDS011;5341;47.606;7.576;2023-12-28T06:35:30;6.15;;;5.13;;
10586;SDS011;5341;47.606;7.576;2023-12-28T06:37:58;6.40;;;5.00;;
10586;SDS011;5341;47.606;7.576;2023-12-28T06:40:25;6.15;;;5.38;;
10586;SDS011;5341;47.606;7.576;2023-12-28T06:42:54;6.18;;;5.40;;
10586;SDS011;5341;47.606;7.576;2023-12-28T06:45:21;7.03;;;5.22;;
10586;SDS011;5341;47.606;7.576;2023-12-28T06:47:53;6.15;;;5.15;;
10586;SDS011;5341;47.606;7.576;2023-12-28T06:50:20;6.95;;;5.40;;
10586;SDS011;5341;47.606;7.576;2023-12-28T06:52:47;6.47;;;5.40;;
10586;SDS011;5341;47.606;7.576;2023-12-28T06:55:15;6.28;;;5.15;;
10586;SDS011;5341;47.606;7.576;2023-12-28T06:57:42;6.40;;;5.72;;
10586;SDS011;5341;47.606;7.576;2023-12-28T07:00:12;9.05;;;5.35;;
10586;SDS011;5341;47.606;7.576;2023-12-28T07:02:40;8.45;;;5.93;;
10586;SDS011;5341;47.606;7.576;2023-12-28T07:05:07;7.18;;;5.90;;
10586;SDS011;5341;47.606;7.576;2023-12-28T07:07:34;6.80;;;5.45;;
10586;SDS011;5341;47.606;7.576;2023-12-28T07:10:02;7.25;;;5.90;;
10586;SDS011;5341;47.606;7.576;2023-12-28T07:12:30;7.80;;;5.85;;
10586;SDS011;5341;47.606;7.576;2023-12-28T07:14:58;7.50;;;5.50;;
10586;SDS011;5341;47.606;7.576;2023-12-28T07:17:27;6.25;;;5.63;;
10586;SDS011;5341;47.606;7.576;2023-12-28T07:19:54;6.63;;;5.63;;
10586;SDS011;5341;47.606;7.576;2023-12-28T07:22:22;6.28;;;5.55;;
10586;SDS011;5341;47.606;7.576;2023-12-28T07:24:49;6.53;;;5.25;;
10586;SDS011;5341;47.606;7.576;2023-12-28T07:27:16;9.30;;;5.65;;
10586;SDS011;5341;47.606;7.576;2023-12-28T07:29:44;6.95;;;5.10;;
10586;SDS011;5341;47.606;7.576;2023-12-28T07:32:11;9.57;;;6.68;;
10586;SDS011;5341;47.606;7.576;2023-12-28T07:34:41;11.57;;;8.95;;
10586;SDS011;5341;47.606;7.576;2023-12-28T07:37:08;12.57;;;8.00;;
10586;SDS011;5341;47.606;7.576;2023-12-28T07:39:35;13.77;;;9.45;;
10586;SDS011;5341;47.606;7.576;2023-12-28T07:42:02;11.80;;;8.18;;
10586;SDS011;5341;47.606;7.576;2023-12-28T07:44:30;9.88;;;7.80;;
10586;SDS011;5341;47.606;7.576;2023-12-28T07:46:58;10.00;;;7.50;;
10586;SDS011;5341;47.606;7.576;2023-12-28T07:49:25;9.65;;;7.43;;
10586;SDS011;5341;47.606;7.576;2023-12-28T07:51:54;9.18;;;7.22;;
10586;SDS011;5341;47.606;7.576;2023-12-28T07:54:21;10.52;;;7.13;;
10586;SDS011;5341;47.606;7.576;2023-12-28T07:56:49;9.15;;;7.03;;
10586;SDS011;5341;47.606;7.576;2023-12-28T07:59:16;8.40;;;6.25;;
10586;SDS011;5341;47.606;7.576;2023-12-28T08:01:43;9.18;;;6.68;;
10586;SDS011;5341;47.606;7.576;2023-12-28T08:04:11;8.02;;;6.47;;
10586;SDS011;5341;47.606;7.576;2023-12-28T08:06:39;8.63;;;6.47;;
10586;SDS011;5341;47.606;7.576;2023-12-28T08:09:08;7.80;;;6.13;;
10586;SDS011;5341;47.606;7.576;2023-12-28T08:11:35;8.43;;;6.50;;
10586;SDS011;5341;47.606;7.576;2023-12-28T08:14:02;8.30;;;6.45;;
10586;SDS011;5341;47.606;7.576;2023-12-28T08:16:30;7.85;;;6.10;;
10586;SDS011;5341;47.606;7.576;2023-12-28T08:18:57;10.05;;;6.40;;
10586;SDS011;5341;47.606;7.576;2023-12-28T08:21:24;7.57;;;6.10;;
10586;SDS011;5341;47.606;7.576;2023-12-28T08:23:52;8.32;;;6.00;;
10586;SDS011;5341;47.606;7.576;2023-12-28T08:26:21;7.47;;;6.47;;
10586;SDS011;5341;47.606;7.576;2023-12-28T08:28:48;7.20;;;6.18;;
10586;SDS011;5341;47.606;7.576;2023-12-28T08:31:15;7.25;;;6.00;;
10586;SDS011;5341;47.606;7.576;2023-12-28T08:33:43;9.00;;;6.93;;
10586;SDS011;5341;47.606;7.576;2023-12-28T08:36:10;7.78;;;6.32;;
10586;SDS011;5341;47.606;7.576;2023-12-28T08:38:38;8.45;;;6.53;;
10586;SDS011;5341;47.606;7.576;2023-12-28T08:41:05;8.68;;;6.72;;
10586;SDS011;5341;47.606;7.576;2023-12-28T08:43:37;8.02;;;6.40;;
10586;SDS011;5341;47.606;7.576;2023-12-28T08:46:07;7.47;;;6.30;;
10586;SDS011;5341;47.606;7.576;2023-12-28T08:48:35;7.28;;;6.38;;
10586;SDS011;5341;47.606;7.576;2023-12-28T08:51:02;8.02;;;6.25;;
10586;SDS011;5341;47.606;7.576;2023-12-28T08:53:30;9.15;;;6.53;;
10586;SDS011;5341;47.606;7.576;2023-12-28T08:55:57;9.82;;;6.32;;
10586;SDS011;5341;47.606;7.576;2023-12-28T08:58:24;6.65;;;5.95;;
10586;SDS011;5341;47.606;7.576;2023-12-28T09:00:53;8.52;;;6.82;;
10586;SDS011;5341;47.606;7.576;2023-12-28T09:03:21;7.68;;;5.80;;
10586;SDS011;5341;47.606;7.576;2023-12-28T09:05:48;7.43;;;6.63;;
10586;SDS011;5341;47.606;7.576;2023-12-28T09:08:15;7.35;;;6.38;;
10586;SDS011;5341;47.606;7.576;2023-12-28T09:10:43;7.38;;;5.70;;
10586;SDS011;5341;47.606;7.576;2023-12-28T09:13:14;8.02;;;6.45;;
10586;SDS011;5341;47.606;7.576;2023-12-28T09:15:42;8.25;;;6.78;;
10586;SDS011;5341;47.606;7.576;2023-12-28T09:18:12;10.73;;;6.18;;
10586;SDS011;5341;47.606;7.576;2023-12-28T09:20:40;7.32;;;6.20;;
10586;SDS011;5341;47.606;7.576;2023-12-28T09:23:08;7.35;;;6.55;;
10586;SDS011;5341;47.606;7.576;2023-12-28T09:25:36;9.45;;;6.82;;
10586;SDS011;5341;47.606;7.576;2023-12-28T09:28:04;8.65;;;7.75;;
10586;SDS011;5341;47.606;7.576;2023-12-28T09:30:32;10.43;;;7.72;;
10586;SDS011;5341;47.606;7.576;2023-12-28T09:32:59;11.63;;;7.60;;
10586;SDS011;5341;47.606;7.576;2023-12-28T09:35:28;10.98;;;6.82;;
10586;SDS011;5341;47.606;7.576;2023-12-28T09:37:55;10.30;;;7.28;;
10586;SDS011;5341;47.606;7.576;2023-12-28T09:40:23;11.98;;;6.82;;
10586;SDS011;5341;47.606;7.576;2023-12-28T09:42:53;7.82;;;6.60;;
10586;SDS011;5341;47.606;7.576;2023-12-28T09:45:27;7.93;;;6.82;;
10586;SDS011;5341;47.606;7.576;2023-12-28T09:47:55;7.97;;;7.00;;
10586;SDS011;5341;47.606;7.576;2023-12-28T09:50:22;9.05;;;6.90;;
10586;SDS011;5341;47.606;7.576;2023-12-28T09:52:53;8.95;;;6.88;;
10586;SDS011;5341;47.606;7.576;2023-12-28T09:55:21;8.52;;;6.85;;
10586;SDS011;5341;47.606;7.576;2023-12-28T09:57:50;8.82;;;6.93;;
10586;SDS011;5341;47.606;7.576;2023-12-28T10:00:19;10.38;;;6.97;;
10586;SDS011;5341;47.606;7.576;2023-12-28T10:02:50;9.85;;;6.95;;
10586;SDS011;5341;47.606;7.576;2023-12-28T10:05:17;9.48;;;6.80;;
10586;SDS011;5341;47.606;7.576;2023-12-28T10:07:45;8.80;;;7.13;;
10586;SDS011;5341;47.606;7.576;2023-12-28T10:10:15;9.43;;;7.10;;
10586;SDS011;5341;47.606;7.576;2023-12-28T10:12:45;9.50;;;7.28;;
10586;SDS011;5341;47.606;7.576;2023-12-28T10:15:13;10.85;;;7.40;;
10586;SDS011;5341;47.606;7.576;2023-12-28T10:17:41;8.52;;;7.00;;
10586;SDS011;5341;47.606;7.576;2023-12-28T10:20:09;8.45;;;6.93;;
10586;SDS011;5341;47.606;7.576;2023-12-28T10:22:37;10.00;;;7.53;;
10586;SDS011;5341;47.606;7.576;2023-12-28T10:25:05;10.07;;;7.68;;
10586;SDS011;5341;47.606;7.576;2023-12-28T10:27:38;10.30;;;7.15;;
10586;SDS011;5341;47.606;7.576;2023-12-28T10:30:08;10.82;;;7.57;;
10586;SDS011;5341;47.606;7.576;2023-12-28T10:32:39;9.20;;;7.15;;
10586;SDS011;5341;47.606;7.576;2023-12-28T10:35:07;8.80;;;7.18;;
10586;SDS011;5341;47.606;7.576;2023-12-28T10:37:35;9.65;;;7.22;;
10586;SDS011;5341;47.606;7.576;2023-12-28T10:40:06;8.90;;;7.20;;
10586;SDS011;5341;47.606;7.576;2023-12-28T10:42:42;9.60;;;7.80;;
10586;SDS011;5341;47.606;7.576;2023-12-28T10:45:18;8.95;;;7.07;;
10586;SDS011;5341;47.606;7.576;2023-12-28T10:47:52;10.63;;;7.72;;
10586;SDS011;5341;47.606;7.576;2023-12-28T10:50:24;7.45;;;6.50;;
10586;SDS011;5341;47.606;7.576;2023-12-28T10:52:59;10.63;;;7.03;;
10586;SDS011;5341;47.606;7.576;2023-12-28T10:55:39;9.15;;;7.25;;
10586;SDS011;5341;47.606;7.576;2023-12-28T10:58:17;9.40;;;6.85;;
10586;SDS011;5341;47.606;7.576;2023-12-28T11:00:53;8.85;;;7.38;;
10586;SDS011;5341;47.606;7.576;2023-12-28T11:03:26;9.48;;;7.03;;
10586;SDS011;5341;47.606;7.576;2023-12-28T11:05:57;10.18;;;7.30;;
10586;SDS011;5341;47.606;7.576;2023-12-28T11:08:25;10.27;;;7.20;;
10586;SDS011;5341;47.606;7.576;2023-12-28T11:10:53;8.20;;;6.45;;
10586;SDS011;5341;47.606;7.576;2023-12-28T11:13:23;9.40;;;7.45;;
10586;SDS011;5341;47.606;7.576;2023-12-28T11:15:51;8.15;;;6.85;;
10586;SDS011;5341;47.606;7.576;2023-12-28T11:18:18;9.30;;;7.35;;
10586;SDS011;5341;47.606;7.576;2023-12-28T11:20:49;8.48;;;7.35;;
10586;SDS011;5341;47.606;7.576;2023-12-28T11:23:17;9.00;;;7.70;;
10586;SDS011;5341;47.606;7.576;2023-12-28T11:25:45;8.80;;;7.50;;
10586;SDS011;5341;47.606;7.576;2023-12-28T11:28:12;9.15;;;7.50;;
10586;SDS011;5341;47.606;7.576;2023-12-28T11:30:43;8.43;;;6.88;;
10586;SDS011;5341;47.606;7.576;2023-12-28T11:33:10;9.20;;;7.13;;
10586;SDS011;5341;47.606;7.576;2023-12-28T11:35:38;9.32;;;7.05;;
10586;SDS011;5341;47.606;7.576;2023-12-28T11:38:07;9.13;;;6.90;;
10586;SDS011;5341;47.606;7.576;2023-12-28T11:40:42;8.68;;;7.70;;
10586;SDS011;5341;47.606;7.576;2023-12-28T11:43:15;9.73;;;7.70;;
10586;SDS011;5341;47.606;7.576;2023-12-28T11:45:50;9.02;;;7.25;;
10586;SDS011;5341;47.606;7.576;2023-12-28T11:48:24;8.30;;;7.05;;
10586;SDS011;5341;47.606;7.576;2023-12-28T11:50:54;9.35;;;7.25;;
10586;SDS011;5341;47.606;7.576;2023-12-28T11:53:23;8.20;;;7.07;;
10586;SDS011;5341;47.606;7.576;2023-12-28T11:55:51;7.75;;;6.88;;
10586;SDS011;5341;47.606;7.576;2023-12-28T11:58:26;8.18;;;7.20;;
10586;SDS011;5341;47.606;7.576;2023-12-28T12:00:55;9.05;;;7.03;;
10586;SDS011;5341;47.606;7.576;2023-12-28T12:03:24;8.30;;;7.07;;
10586;SDS011;5341;47.606;7.576;2023-12-28T12:05:52;9.25;;;7.35;;
10586;SDS011;5341;47.606;7.576;2023-12-28T12:08:23;10.63;;;7.32;;
10586;SDS011;5341;47.606;7.576;2023-12-28T12:11:01;12.02;;;7.97;;
10586;SDS011;5341;47.606;7.576;2023-12-28T12:13:31;8.70;;;7.10;;
10586;SDS011;5341;47.606;7.576;2023-12-28T12:16:00;9.82;;;7.32;;
10586;SDS011;5341;47.606;7.576;2023-12-28T12:18:31;9.20;;;7.00;;
10586;SDS011;5341;47.606;7.576;2023-12-28T12:20:59;9.30;;;7.45;;
10586;SDS011;5341;47.606;7.576;2023-12-28T12:23:28;8.70;;;6.90;;
10586;SDS011;5341;47.606;7.576;2023-12-28T12:25:55;8.50;;;7.13;;
10586;SDS011;5341;47.606;7.576;2023-12-28T12:28:23;10.48;;;7.32;;
10586;SDS011;5341;47.606;7.576;2023-12-28T12:30:51;9.52;;;7.43;;
10586;SDS011;5341;47.606;7.576;2023-12-28T12:33:23;8.50;;;6.68;;
10586;SDS011;5341;47.606;7.576;2023-12-28T12:35:53;12.50;;;7.80;;
10586;SDS011;5341;47.606;7.576;2023-12-28T12:38:21;9.32;;;7.20;;
10586;SDS011;5341;47.606;7.576;2023-12-28T12:40:50;9.13;;;6.75;;
10586;SDS011;5341;47.606;7.576;2023-12-28T12:43:18;10.07;;;7.45;;
10586;SDS011;5341;47.606;7.576;2023-12-28T12:45:46;9.38;;;7.70;;
10586;SDS011;5341;47.606;7.576;2023-12-28T12:48:14;9.13;;;7.18;;
10586;SDS011;5341;47.606;7.576;2023-12-28T12:50:42;9.02;;;7.70;;
10586;SDS011;5341;47.606;7.576;2023-12-28T12:53:10;8.73;;;7.30;;
10586;SDS011;5341;47.606;7.576;2023-12-28T12:55:38;11.32;;;7.20;;
10586;SDS011;5341;47.606;7.576;2023-12-28T12:58:07;9.48;;;7.55;;
10586;SDS011;5341;47.606;7.576;2023-12-28T13:00:38;9.30;;;7.20;;
10586;SDS011;5341;47.606;7.576;2023-12-28T13:03:07;8.85;;;7.90;;
10586;SDS011;5341;47.606;7.576;2023-12-28T13:05:35;10.77;;;7.53;;
10586;SDS011;5341;47.606;7.576;2023-12-28T13:08:04;9.68;;;7.72;;
10586;SDS011;5341;47.606;7.576;2023-12-28T13:10:32;8.50;;;7.05;;
10586;SDS011;5341;47.606;7.576;2023-12-28T13:12:59;8.98;;;6.78;;
10586;SDS011;5341;47.606;7.576;2023-12-28T13:15:27;10.07;;;7.28;;
10586;SDS011;5341;47.606;7.576;2023-12-28T13:17:54;8.50;;;7.10;;
10586;SDS011;5341;47.606;7.576;2023-12-28T13:20:22;10.00;;;6.95;;
10586;SDS011;5341;47.606;7.576;2023-12-28T13:22:49;8.13;;;6.68;;
10586;SDS011;5341;47.606;7.576;2023-12-28T13:25:22;9.13;;;6.45;;
10586;SDS011;5341;47.606;7.576;2023-12-28T13:27:49;9.07;;;6.72;;
10586;SDS011;5341;47.606;7.576;2023-12-28T13:30:16;9.70;;;7.30;;
10586;SDS011;5341;47.606;7.576;2023-12-28T13:32:44;8.45;;;6.72;;
10586;SDS011;5341;47.606;7.576;2023-12-28T13:35:11;9.77;;;7.60;;
10586;SDS011;5341;47.606;7.576;2023-12-28T13:37:39;8.60;;;7.15;;
10586;SDS011;5341;47.606;7.576;2023-12-28T13:40:07;10.90;;;8.18;;
10586;SDS011;5341;47.606;7.576;2023-12-28T13:42:38;13.90;;;10.70;;
10586;SDS011;5341;47.606;7.576;2023-12-28T13:45:06;10.70;;;8.40;;
10586;SDS011;5341;47.606;7.576;2023-12-28T13:47:34;13.48;;;9.95;;
10586;SDS011;5341;47.606;7.576;2023-12-28T13:50:01;11.30;;;8.85;;
10586;SDS011;5341;47.606;7.576;2023-12-28T13:52:29;10.82;;;7.80;;
10586;SDS011;5341;47.606;7.576;2023-12-28T13:54:57;10.98;;;8.43;;
10586;SDS011;5341;47.606;7.576;2023-12-28T13:57:24;9.48;;;7.80;;
10586;SDS011;5341;47.606;7.576;2023-12-28T13:59:53;10.73;;;8.27;;
10586;SDS011;5341;47.606;7.576;2023-12-28T14:02:22;11.95;;;9.30;;
10586;SDS011;5341;47.606;7.576;2023-12-28T14:04:50;13.52;;;9.63;;
10586;SDS011;5341;47.606;7.576;2023-12-28T14:07:19;12.27;;;9.00;;
10586;SDS011;5341;47.606;7.576;2023-12-28T14:09:46;11.35;;;8.10;;
10586;SDS011;5341;47.606;7.576;2023-12-28T14:12:14;10.63;;;7.57;;
10586;SDS011;5341;47.606;7.576;2023-12-28T14:14:41;10.75;;;8.00;;
10586;SDS011;5341;47.606;7.576;2023-12-28T14:17:10;10.63;;;7.88;;
10586;SDS011;5341;47.606;7.576;2023-12-28T14:19:38;11.07;;;7.93;;
10586;SDS011;5341;47.606;7.576;2023-12-28T14:22:07;9.05;;;7.45;;
10586;SDS011;5341;47.606;7.576;2023-12-28T14:24:35;9.07;;;7.43;;
10586;SDS011;5341;47.606;7.576;2023-12-28T14:27:03;10.05;;;8.13;;
10586;SDS011;5341;47.606;7.576;2023-12-28T14:29:32;10.07;;;7.60;;
10586;SDS011;5341;47.606;7.576;2023-12-28T14:32:00;10.77;;;7.97;;
10586;SDS011;5341;47.606;7.576;2023-12-28T14:34:30;11.07;;;8.93;;
10586;SDS011;5341;47.606;7.576;2023-12-28T14:36:57;14.38;;;10.23;;
10586;SDS011;5341;47.606;7.576;2023-12-28T14:39:25;14.40;;;10.93;;
10586;SDS011;5341;47.606;7.576;2023-12-28T14:41:52;13.10;;;11.05;;
10586;SDS011;5341;47.606;7.576;2023-12-28T14:44:20;13.68;;;11.02;;
10586;SDS011;5341;47.606;7.576;2023-12-28T14:46:47;12.15;;;10.18;;
10586;SDS011;5341;47.606;7.576;2023-12-28T14:49:15;12.65;;;10.18;;
10586;SDS011;5341;47.606;7.576;2023-12-28T14:51:44;15.38;;;10.73;;
10586;SDS011;5341;47.606;7.576;2023-12-28T14:54:11;12.18;;;10.35;;
10586;SDS011;5341;47.606;7.576;2023-12-28T14:56:38;16.95;;;12.57;;
10586;SDS011;5341;47.606;7.576;2023-12-28T14:59:06;17.13;;;12.18;;
10586;SDS011;5341;47.606;7.576;2023-12-28T15:01:33;12.25;;;10.13;;
10586;SDS011;5341;47.606;7.576;2023-12-28T15:04:01;13.10;;;10.40;;